sensor_id;sensor_type;location;lat;lon;timestamp;temperature;humidity
16970;DHT22;8601;48.718;8.992;2024-02-26T00:00:15;6.50;91.30
16970;DHT22;8601;48.718;8.992;2024-02-26T00:02:42;6.50;91.60
16970;DHT22;8601;48.718;8.992;2024-02-26T00:05:10;6.50;91.40
16970;DHT22;8601;48.718;8.992;2024-02-26T00:07:37;6.60;92.10
16970;DHT22;8601;48.718;8.992;2024-02-26T00:10:06;6.50;92.30
16970;DHT22;8601;48.718;8.992;2024-02-26T00:12:34;6.50;92.00
16970;DHT22;8601;48.718;8.992;2024-02-26T00:15:01;6.50;92.30
16970;DHT22;8601;48.718;8.992;2024-02-26T00:17:29;6.60;92.20
16970;DHT22;8601;48.718;8.992;2024-02-26T00:19:56;6.60;92.20
16970;DHT22;8601;48.718;8.992;2024-02-26T00:22:24;6.50;92.00
16970;DHT22;8601;48.718;8.992;2024-02-26T00:24:51;6.70;94.20
16970;DHT22;8601;48.718;8.992;2024-02-26T00:27:17;6.60;92.70
16970;DHT22;8601;48.718;8.992;2024-02-26T00:29:44;6.60;93.10
16970;DHT22;8601;48.718;8.992;2024-02-26T00:32:11;6.50;93.40
16970;DHT22;8601;48.718;8.992;2024-02-26T00:34:38;6.50;93.00
16970;DHT22;8601;48.718;8.992;2024-02-26T00:37:05;6.50;92.70
16970;DHT22;8601;48.718;8.992;2024-02-26T00:39:33;6.60;92.80
16970;DHT22;8601;48.718;8.992;2024-02-26T00:42:00;6.60;92.80
16970;DHT22;8601;48.718;8.992;2024-02-26T00:44:26;6.60;92.90
16970;DHT22;8601;48.718;8.992;2024-02-26T00:46:53;6.60;92.40
16970;DHT22;8601;48.718;8.992;2024-02-26T00:49:20;6.70;92.70
16970;DHT22;8601;48.718;8.992;2024-02-26T00:51:47;6.70;93.00
16970;DHT22;8601;48.718;8.992;2024-02-26T00:54:14;6.70;92.80
16970;DHT22;8601;48.718;8.992;2024-02-26T00:56:42;6.70;92.90
16970;DHT22;8601;48.718;8.992;2024-02-26T00:59:09;6.70;92.80
16970;DHT22;8601;48.718;8.992;2024-02-26T01:01:35;6.60;92.50
16970;DHT22;8601;48.718;8.992;2024-02-26T01:04:02;6.50;91.90
16970;DHT22;8601;48.718;8.992;2024-02-26T01:06:29;6.50;92.70
16970;DHT22;8601;48.718;8.992;2024-02-26T01:08:56;6.50;93.00
16970;DHT22;8601;48.718;8.992;2024-02-26T01:11:24;6.50;91.90
16970;DHT22;8601;48.718;8.992;2024-02-26T01:13:52;6.50;91.90
16970;DHT22;8601;48.718;8.992;2024-02-26T01:16:22;6.50;92.00
16970;DHT22;8601;48.718;8.992;2024-02-26T01:18:48;6.60;90.20
16970;DHT22;8601;48.718;8.992;2024-02-26T01:21:15;6.60;90.20
16970;DHT22;8601;48.718;8.992;2024-02-26T01:23:42;6.60;90.10
16970;DHT22;8601;48.718;8.992;2024-02-26T01:26:09;6.60;90.30
16970;DHT22;8601;48.718;8.992;2024-02-26T01:28:36;6.60;90.70
16970;DHT22;8601;48.718;8.992;2024-02-26T01:31:06;6.60;91.90
16970;DHT22;8601;48.718;8.992;2024-02-26T01:33:34;6.50;91.90
16970;DHT22;8601;48.718;8.992;2024-02-26T01:36:01;6.50;91.80
16970;DHT22;8601;48.718;8.992;2024-02-26T01:38:28;6.50;91.90
16970;DHT22;8601;48.718;8.992;2024-02-26T01:40:55;6.40;91.70
16970;DHT22;8601;48.718;8.992;2024-02-26T01:43:22;6.40;91.70
16970;DHT22;8601;48.718;8.992;2024-02-26T01:45:49;6.40;91.90
16970;DHT22;8601;48.718;8.992;2024-02-26T01:48:17;6.40;91.90
16970;DHT22;8601;48.718;8.992;2024-02-26T01:50:44;6.40;92.00
16970;DHT22;8601;48.718;8.992;2024-02-26T01:53:12;6.50;91.50
16970;DHT22;8601;48.718;8.992;2024-02-26T01:55:39;6.50;91.10
16970;DHT22;8601;48.718;8.992;2024-02-26T01:58:07;6.50;91.00
16970;DHT22;8601;48.718;8.992;2024-02-26T02:00:34;6.50;89.60
16970;DHT22;8601;48.718;8.992;2024-02-26T02:03:01;6.50;89.30
16970;DHT22;8601;48.718;8.992;2024-02-26T02:05:30;6.50;89.90
16970;DHT22;8601;48.718;8.992;2024-02-26T02:07:57;6.50;90.00
16970;DHT22;8601;48.718;8.992;2024-02-26T02:10:25;6.70;91.30
16970;DHT22;8601;48.718;8.992;2024-02-26T02:12:54;6.80;91.60
16970;DHT22;8601;48.718;8.992;2024-02-26T02:15:22;6.80;92.20
16970;DHT22;8601;48.718;8.992;2024-02-26T02:17:49;6.80;93.20
16970;DHT22;8601;48.718;8.992;2024-02-26T02:20:17;6.80;94.40
16970;DHT22;8601;48.718;8.992;2024-02-26T02:22:45;6.70;95.60
16970;DHT22;8601;48.718;8.992;2024-02-26T02:25:12;6.60;96.10
16970;DHT22;8601;48.718;8.992;2024-02-26T02:27:41;6.80;94.10
16970;DHT22;8601;48.718;8.992;2024-02-26T02:30:10;7.00;93.30
16970;DHT22;8601;48.718;8.992;2024-02-26T02:32:38;7.20;94.00
16970;DHT22;8601;48.718;8.992;2024-02-26T02:35:06;7.20;94.40
16970;DHT22;8601;48.718;8.992;2024-02-26T02:37:35;7.30;93.10
16970;DHT22;8601;48.718;8.992;2024-02-26T02:40:05;7.40;92.40
16970;DHT22;8601;48.718;8.992;2024-02-26T02:42:32;7.40;92.20
16970;DHT22;8601;48.718;8.992;2024-02-26T02:44:58;7.40;92.20
16970;DHT22;8601;48.718;8.992;2024-02-26T02:47:26;7.40;92.00
16970;DHT22;8601;48.718;8.992;2024-02-26T02:49:53;7.40;91.80
16970;DHT22;8601;48.718;8.992;2024-02-26T02:52:20;7.30;92.70
16970;DHT22;8601;48.718;8.992;2024-02-26T02:54:47;7.30;93.60
16970;DHT22;8601;48.718;8.992;2024-02-26T02:57:15;7.30;93.60
16970;DHT22;8601;48.718;8.992;2024-02-26T02:59:42;7.20;94.20
16970;DHT22;8601;48.718;8.992;2024-02-26T03:02:08;7.20;94.10
16970;DHT22;8601;48.718;8.992;2024-02-26T03:04:35;7.20;93.70
16970;DHT22;8601;48.718;8.992;2024-02-26T03:07:02;7.20;93.00
16970;DHT22;8601;48.718;8.992;2024-02-26T03:09:29;7.30;92.70
16970;DHT22;8601;48.718;8.992;2024-02-26T03:11:56;7.40;92.80
16970;DHT22;8601;48.718;8.992;2024-02-26T03:14:25;7.50;92.40
16970;DHT22;8601;48.718;8.992;2024-02-26T03:16:54;7.50;92.40
16970;DHT22;8601;48.718;8.992;2024-02-26T03:19:21;7.60;92.20
16970;DHT22;8601;48.718;8.992;2024-02-26T03:21:48;7.60;91.60
16970;DHT22;8601;48.718;8.992;2024-02-26T03:24:15;7.50;93.10
16970;DHT22;8601;48.718;8.992;2024-02-26T03:26:44;7.40;94.00
16970;DHT22;8601;48.718;8.992;2024-02-26T03:29:11;7.40;93.40
16970;DHT22;8601;48.718;8.992;2024-02-26T03:31:39;7.40;93.40
16970;DHT22;8601;48.718;8.992;2024-02-26T03:34:06;7.30;93.70
16970;DHT22;8601;48.718;8.992;2024-02-26T03:36:32;7.10;95.50
16970;DHT22;8601;48.718;8.992;2024-02-26T03:38:59;7.00;96.60
16970;DHT22;8601;48.718;8.992;2024-02-26T03:41:29;6.90;96.40
16970;DHT22;8601;48.718;8.992;2024-02-26T03:43:57;6.90;97.40
16970;DHT22;8601;48.718;8.992;2024-02-26T03:46:25;6.80;97.60
16970;DHT22;8601;48.718;8.992;2024-02-26T03:48:53;6.90;97.70
16970;DHT22;8601;48.718;8.992;2024-02-26T03:51:20;6.90;98.10
16970;DHT22;8601;48.718;8.992;2024-02-26T03:53:47;6.90;98.30
16970;DHT22;8601;48.718;8.992;2024-02-26T03:56:14;7.00;98.60
16970;DHT22;8601;48.718;8.992;2024-02-26T03:58:41;7.00;98.80
16970;DHT22;8601;48.718;8.992;2024-02-26T04:01:08;7.00;98.60
16970;DHT22;8601;48.718;8.992;2024-02-26T04:03:35;7.00;97.90
16970;DHT22;8601;48.718;8.992;2024-02-26T04:06:04;7.00;97.80
16970;DHT22;8601;48.718;8.992;2024-02-26T04:08:30;7.10;98.20
16970;DHT22;8601;48.718;8.992;2024-02-26T04:10:57;7.10;97.70
16970;DHT22;8601;48.718;8.992;2024-02-26T04:13:25;7.00;96.80
16970;DHT22;8601;48.718;8.992;2024-02-26T04:15:52;7.00;96.30
16970;DHT22;8601;48.718;8.992;2024-02-26T04:18:19;7.00;97.00
16970;DHT22;8601;48.718;8.992;2024-02-26T04:20:45;7.00;98.10
16970;DHT22;8601;48.718;8.992;2024-02-26T04:23:14;7.00;98.90
16970;DHT22;8601;48.718;8.992;2024-02-26T04:25:40;7.00;98.90
16970;DHT22;8601;48.718;8.992;2024-02-26T04:28:07;7.00;98.50
16970;DHT22;8601;48.718;8.992;2024-02-26T04:30:34;7.00;98.90
16970;DHT22;8601;48.718;8.992;2024-02-26T04:33:01;6.90;98.90
16970;DHT22;8601;48.718;8.992;2024-02-26T04:35:28;6.90;99.00
16970;DHT22;8601;48.718;8.992;2024-02-26T04:37:54;7.00;98.90
16970;DHT22;8601;48.718;8.992;2024-02-26T04:40:23;7.00;98.60
16970;DHT22;8601;48.718;8.992;2024-02-26T04:42:49;7.00;98.30
16970;DHT22;8601;48.718;8.992;2024-02-26T04:45:16;7.10;98.10
16970;DHT22;8601;48.718;8.992;2024-02-26T04:47:43;7.10;98.30
16970;DHT22;8601;48.718;8.992;2024-02-26T04:50:10;7.10;97.70
16970;DHT22;8601;48.718;8.992;2024-02-26T04:52:37;7.10;97.90
16970;DHT22;8601;48.718;8.992;2024-02-26T04:55:04;7.10;97.10
16970;DHT22;8601;48.718;8.992;2024-02-26T04:57:32;7.10;96.90
16970;DHT22;8601;48.718;8.992;2024-02-26T04:59:59;7.10;97.10
16970;DHT22;8601;48.718;8.992;2024-02-26T05:02:26;7.10;96.40
16970;DHT22;8601;48.718;8.992;2024-02-26T05:04:53;7.10;96.50
16970;DHT22;8601;48.718;8.992;2024-02-26T05:07:19;7.10;95.50
16970;DHT22;8601;48.718;8.992;2024-02-26T05:09:47;7.10;95.60
16970;DHT22;8601;48.718;8.992;2024-02-26T05:12:15;7.10;95.70
16970;DHT22;8601;48.718;8.992;2024-02-26T05:14:43;7.10;95.90
16970;DHT22;8601;48.718;8.992;2024-02-26T05:17:10;7.10;95.00
16970;DHT22;8601;48.718;8.992;2024-02-26T05:19:38;7.00;95.60
16970;DHT22;8601;48.718;8.992;2024-02-26T05:22:05;7.10;96.10
16970;DHT22;8601;48.718;8.992;2024-02-26T05:24:33;7.00;95.80
16970;DHT22;8601;48.718;8.992;2024-02-26T05:27:00;6.90;95.80
16970;DHT22;8601;48.718;8.992;2024-02-26T05:29:29;7.00;96.60
16970;DHT22;8601;48.718;8.992;2024-02-26T05:31:58;7.00;96.90
16970;DHT22;8601;48.718;8.992;2024-02-26T05:34:25;6.90;96.80
16970;DHT22;8601;48.718;8.992;2024-02-26T05:36:52;6.90;97.10
16970;DHT22;8601;48.718;8.992;2024-02-26T05:39:19;6.90;97.50
16970;DHT22;8601;48.718;8.992;2024-02-26T05:41:46;6.80;97.10
16970;DHT22;8601;48.718;8.992;2024-02-26T05:44:12;6.80;96.70
16970;DHT22;8601;48.718;8.992;2024-02-26T05:46:40;6.80;96.70
16970;DHT22;8601;48.718;8.992;2024-02-26T05:49:09;6.80;97.70
16970;DHT22;8601;48.718;8.992;2024-02-26T05:51:35;6.80;98.30
16970;DHT22;8601;48.718;8.992;2024-02-26T05:54:03;6.80;99.10
16970;DHT22;8601;48.718;8.992;2024-02-26T05:56:30;6.60;99.90
16970;DHT22;8601;48.718;8.992;2024-02-26T05:58:57;6.50;99.90
16970;DHT22;8601;48.718;8.992;2024-02-26T06:01:24;6.50;99.90
16970;DHT22;8601;48.718;8.992;2024-02-26T06:03:51;6.20;99.90
16970;DHT22;8601;48.718;8.992;2024-02-26T06:06:20;6.10;99.90
16970;DHT22;8601;48.718;8.992;2024-02-26T06:08:48;6.10;99.90
16970;DHT22;8601;48.718;8.992;2024-02-26T06:11:15;6.00;99.90
16970;DHT22;8601;48.718;8.992;2024-02-26T06:13:42;6.00;99.90
16970;DHT22;8601;48.718;8.992;2024-02-26T06:16:11;6.00;99.90
16970;DHT22;8601;48.718;8.992;2024-02-26T06:18:38;6.00;99.90
16970;DHT22;8601;48.718;8.992;2024-02-26T06:21:05;6.00;99.90
16970;DHT22;8601;48.718;8.992;2024-02-26T06:23:36;5.90;99.90
16970;DHT22;8601;48.718;8.992;2024-02-26T06:26:03;5.90;99.90
16970;DHT22;8601;48.718;8.992;2024-02-26T06:28:30;6.00;99.90
16970;DHT22;8601;48.718;8.992;2024-02-26T06:30:59;6.00;99.90
16970;DHT22;8601;48.718;8.992;2024-02-26T06:33:26;6.00;99.90
16970;DHT22;8601;48.718;8.992;2024-02-26T06:35:55;6.00;99.90
16970;DHT22;8601;48.718;8.992;2024-02-26T06:38:22;5.90;99.90
16970;DHT22;8601;48.718;8.992;2024-02-26T06:40:51;5.90;99.90
16970;DHT22;8601;48.718;8.992;2024-02-26T06:43:22;5.90;99.90
16970;DHT22;8601;48.718;8.992;2024-02-26T06:45:49;5.90;99.90
16970;DHT22;8601;48.718;8.992;2024-02-26T06:48:16;5.90;99.90
16970;DHT22;8601;48.718;8.992;2024-02-26T06:50:43;6.00;99.90
16970;DHT22;8601;48.718;8.992;2024-02-26T06:53:10;6.10;99.90
16970;DHT22;8601;48.718;8.992;2024-02-26T06:55:36;6.20;99.90
16970;DHT22;8601;48.718;8.992;2024-02-26T06:58:07;6.20;99.90
16970;DHT22;8601;48.718;8.992;2024-02-26T07:00:33;6.30;99.90
16970;DHT22;8601;48.718;8.992;2024-02-26T07:03:00;6.40;99.90
16970;DHT22;8601;48.718;8.992;2024-02-26T07:05:28;6.40;99.90
16970;DHT22;8601;48.718;8.992;2024-02-26T07:07:55;8.50;99.90
16970;DHT22;8601;48.718;8.992;2024-02-26T07:10:23;8.00;99.90
16970;DHT22;8601;48.718;8.992;2024-02-26T07:12:52;7.70;99.90
16970;DHT22;8601;48.718;8.992;2024-02-26T07:15:20;7.40;99.90
16970;DHT22;8601;48.718;8.992;2024-02-26T07:17:47;7.20;99.90
16970;DHT22;8601;48.718;8.992;2024-02-26T07:20:15;7.00;99.90
16970;DHT22;8601;48.718;8.992;2024-02-26T07:22:48;6.90;99.90
16970;DHT22;8601;48.718;8.992;2024-02-26T07:25:15;6.70;99.90
16970;DHT22;8601;48.718;8.992;2024-02-26T07:27:42;6.70;99.90
16970;DHT22;8601;48.718;8.992;2024-02-26T07:30:10;6.60;99.90
16970;DHT22;8601;48.718;8.992;2024-02-26T07:32:38;6.70;99.90
16970;DHT22;8601;48.718;8.992;2024-02-26T07:35:05;6.70;99.90
16970;DHT22;8601;48.718;8.992;2024-02-26T07:37:32;6.70;99.90
16970;DHT22;8601;48.718;8.992;2024-02-26T07:40:00;6.70;99.90
16970;DHT22;8601;48.718;8.992;2024-02-26T07:42:27;6.70;99.90
16970;DHT22;8601;48.718;8.992;2024-02-26T07:44:53;6.70;99.90
16970;DHT22;8601;48.718;8.992;2024-02-26T07:47:20;6.70;99.90
16970;DHT22;8601;48.718;8.992;2024-02-26T07:49:48;6.70;99.90
16970;DHT22;8601;48.718;8.992;2024-02-26T07:52:16;6.80;99.90
16970;DHT22;8601;48.718;8.992;2024-02-26T07:54:42;6.90;99.90
16970;DHT22;8601;48.718;8.992;2024-02-26T07:57:09;6.90;99.90
16970;DHT22;8601;48.718;8.992;2024-02-26T07:59:36;6.90;99.90
16970;DHT22;8601;48.718;8.992;2024-02-26T08:02:03;7.00;99.90
16970;DHT22;8601;48.718;8.992;2024-02-26T08:04:31;6.90;99.90
16970;DHT22;8601;48.718;8.992;2024-02-26T08:06:59;7.00;99.90
16970;DHT22;8601;48.718;8.992;2024-02-26T08:09:26;7.00;99.90
16970;DHT22;8601;48.718;8.992;2024-02-26T08:11:55;7.10;99.90
16970;DHT22;8601;48.718;8.992;2024-02-26T08:14:22;7.10;99.90
16970;DHT22;8601;48.718;8.992;2024-02-26T08:16:49;7.20;99.90
16970;DHT22;8601;48.718;8.992;2024-02-26T08:19:15;7.30;99.90
16970;DHT22;8601;48.718;8.992;2024-02-26T08:21:43;7.40;99.90
16970;DHT22;8601;48.718;8.992;2024-02-26T08:24:11;7.40;99.90
16970;DHT22;8601;48.718;8.992;2024-02-26T08:26:38;10.20;99.90
16970;DHT22;8601;48.718;8.992;2024-02-26T08:29:06;9.40;99.90
16970;DHT22;8601;48.718;8.992;2024-02-26T08:31:33;9.10;99.90
16970;DHT22;8601;48.718;8.992;2024-02-26T08:34:05;8.70;99.90
16970;DHT22;8601;48.718;8.992;2024-02-26T08:36:34;8.40;99.90
16970;DHT22;8601;48.718;8.992;2024-02-26T08:39:01;8.20;99.90
16970;DHT22;8601;48.718;8.992;2024-02-26T08:41:30;8.20;99.90
16970;DHT22;8601;48.718;8.992;2024-02-26T08:43:57;8.10;99.90
16970;DHT22;8601;48.718;8.992;2024-02-26T08:46:24;8.00;99.90
16970;DHT22;8601;48.718;8.992;2024-02-26T08:48:51;8.00;99.90
16970;DHT22;8601;48.718;8.992;2024-02-26T08:51:19;8.10;99.90
16970;DHT22;8601;48.718;8.992;2024-02-26T08:53:46;8.10;99.90
16970;DHT22;8601;48.718;8.992;2024-02-26T08:56:12;8.10;99.90
16970;DHT22;8601;48.718;8.992;2024-02-26T08:58:43;8.10;99.90
16970;DHT22;8601;48.718;8.992;2024-02-26T09:01:12;8.00;99.90
16970;DHT22;8601;48.718;8.992;2024-02-26T09:03:39;8.00;99.90
16970;DHT22;8601;48.718;8.992;2024-02-26T09:06:06;8.10;99.90
16970;DHT22;8601;48.718;8.992;2024-02-26T09:08:33;8.00;99.90
16970;DHT22;8601;48.718;8.992;2024-02-26T09:11:01;8.00;99.90
16970;DHT22;8601;48.718;8.992;2024-02-26T09:13:29;8.00;99.90
16970;DHT22;8601;48.718;8.992;2024-02-26T09:15:59;8.00;99.90
16970;DHT22;8601;48.718;8.992;2024-02-26T09:18:27;8.00;99.90
16970;DHT22;8601;48.718;8.992;2024-02-26T09:20:54;8.20;99.90
16970;DHT22;8601;48.718;8.992;2024-02-26T09:23:21;8.20;99.90
16970;DHT22;8601;48.718;8.992;2024-02-26T09:25:48;8.20;99.90
16970;DHT22;8601;48.718;8.992;2024-02-26T09:28:15;8.70;99.90
16970;DHT22;8601;48.718;8.992;2024-02-26T09:30:43;8.60;99.90
16970;DHT22;8601;48.718;8.992;2024-02-26T09:33:11;8.70;99.90
16970;DHT22;8601;48.718;8.992;2024-02-26T09:35:39;8.60;99.90
16970;DHT22;8601;48.718;8.992;2024-02-26T09:38:06;8.60;99.90
16970;DHT22;8601;48.718;8.992;2024-02-26T09:40:33;8.60;99.90
16970;DHT22;8601;48.718;8.992;2024-02-26T09:43:00;8.60;99.90
16970;DHT22;8601;48.718;8.992;2024-02-26T09:45:28;8.60;99.90
16970;DHT22;8601;48.718;8.992;2024-02-26T09:47:57;8.70;99.90
16970;DHT22;8601;48.718;8.992;2024-02-26T09:50:25;8.60;99.90
16970;DHT22;8601;48.718;8.992;2024-02-26T09:52:53;8.70;99.90
16970;DHT22;8601;48.718;8.992;2024-02-26T09:55:20;8.80;99.90
16970;DHT22;8601;48.718;8.992;2024-02-26T09:57:48;8.90;99.20
16970;DHT22;8601;48.718;8.992;2024-02-26T10:00:19;8.90;99.30
16970;DHT22;8601;48.718;8.992;2024-02-26T10:02:47;9.10;99.60
16970;DHT22;8601;48.718;8.992;2024-02-26T10:05:16;9.40;98.90
16970;DHT22;8601;48.718;8.992;2024-02-26T10:07:45;9.70;97.90
16970;DHT22;8601;48.718;8.992;2024-02-26T10:10:13;9.70;97.30
16970;DHT22;8601;48.718;8.992;2024-02-26T10:12:40;9.80;98.40
16970;DHT22;8601;48.718;8.992;2024-02-26T10:15:07;10.00;97.70
16970;DHT22;8601;48.718;8.992;2024-02-26T10:17:34;10.10;97.40
16970;DHT22;8601;48.718;8.992;2024-02-26T10:20:13;10.20;96.80
16970;DHT22;8601;48.718;8.992;2024-02-26T10:22:41;10.30;96.50
16970;DHT22;8601;48.718;8.992;2024-02-26T10:25:10;10.40;96.80
16970;DHT22;8601;48.718;8.992;2024-02-26T10:27:36;10.40;96.90
16970;DHT22;8601;48.718;8.992;2024-02-26T10:30:04;10.30;96.20
16970;DHT22;8601;48.718;8.992;2024-02-26T10:32:32;10.40;95.40
16970;DHT22;8601;48.718;8.992;2024-02-26T10:34:59;10.40;95.20
16970;DHT22;8601;48.718;8.992;2024-02-26T10:37:26;10.50;94.10
16970;DHT22;8601;48.718;8.992;2024-02-26T10:39:52;10.60;95.30
16970;DHT22;8601;48.718;8.992;2024-02-26T10:42:21;11.60;94.70
16970;DHT22;8601;48.718;8.992;2024-02-26T10:44:48;11.50;91.80
16970;DHT22;8601;48.718;8.992;2024-02-26T10:47:15;11.40;91.20
16970;DHT22;8601;48.718;8.992;2024-02-26T10:49:45;11.40;90.60
16970;DHT22;8601;48.718;8.992;2024-02-26T10:52:15;11.50;90.50
16970;DHT22;8601;48.718;8.992;2024-02-26T10:54:46;11.60;88.50
16970;DHT22;8601;48.718;8.992;2024-02-26T10:57:15;11.60;88.60
16970;DHT22;8601;48.718;8.992;2024-02-26T10:59:45;11.60;85.20
16970;DHT22;8601;48.718;8.992;2024-02-26T11:02:13;11.50;84.30
16970;DHT22;8601;48.718;8.992;2024-02-26T11:04:40;11.70;83.80
16970;DHT22;8601;48.718;8.992;2024-02-26T11:07:09;11.80;84.10
16970;DHT22;8601;48.718;8.992;2024-02-26T11:09:36;12.00;85.10
16970;DHT22;8601;48.718;8.992;2024-02-26T11:12:08;12.20;85.10
16970;DHT22;8601;48.718;8.992;2024-02-26T11:14:38;12.40;83.30
16970;DHT22;8601;48.718;8.992;2024-02-26T11:17:08;12.60;83.10
16970;DHT22;8601;48.718;8.992;2024-02-26T11:19:36;12.60;83.00
16970;DHT22;8601;48.718;8.992;2024-02-26T11:22:04;12.40;80.00
16970;DHT22;8601;48.718;8.992;2024-02-26T11:24:32;12.40;84.70
16970;DHT22;8601;48.718;8.992;2024-02-26T11:27:04;12.40;80.70
16970;DHT22;8601;48.718;8.992;2024-02-26T11:29:37;12.30;82.30
16970;DHT22;8601;48.718;8.992;2024-02-26T11:32:05;12.20;80.50
16970;DHT22;8601;48.718;8.992;2024-02-26T11:34:34;12.10;80.80
16970;DHT22;8601;48.718;8.992;2024-02-26T11:37:10;12.10;80.20
16970;DHT22;8601;48.718;8.992;2024-02-26T11:39:37;12.20;81.60
16970;DHT22;8601;48.718;8.992;2024-02-26T11:42:08;12.40;81.20
16970;DHT22;8601;48.718;8.992;2024-02-26T11:44:35;12.70;81.80
16970;DHT22;8601;48.718;8.992;2024-02-26T11:47:10;12.90;77.30
16970;DHT22;8601;48.718;8.992;2024-02-26T11:49:38;12.60;74.70
16970;DHT22;8601;48.718;8.992;2024-02-26T11:52:06;12.50;74.50
16970;DHT22;8601;48.718;8.992;2024-02-26T11:54:56;12.60;74.90
16970;DHT22;8601;48.718;8.992;2024-02-26T11:57:24;12.60;75.80
16970;DHT22;8601;48.718;8.992;2024-02-26T11:59:50;12.40;75.50
16970;DHT22;8601;48.718;8.992;2024-02-26T12:02:39;12.30;75.70
16970;DHT22;8601;48.718;8.992;2024-02-26T12:05:10;12.20;76.60
16970;DHT22;8601;48.718;8.992;2024-02-26T12:07:39;12.20;78.00
16970;DHT22;8601;48.718;8.992;2024-02-26T12:10:31;12.10;78.90
16970;DHT22;8601;48.718;8.992;2024-02-26T12:13:05;12.10;77.20
16970;DHT22;8601;48.718;8.992;2024-02-26T12:15:33;12.10;78.40
16970;DHT22;8601;48.718;8.992;2024-02-26T12:18:03;12.00;75.90
16970;DHT22;8601;48.718;8.992;2024-02-26T12:20:32;11.90;76.70
16970;DHT22;8601;48.718;8.992;2024-02-26T12:22:59;11.90;77.00
16970;DHT22;8601;48.718;8.992;2024-02-26T12:25:27;11.80;77.00
16970;DHT22;8601;48.718;8.992;2024-02-26T12:27:55;11.80;77.10
16970;DHT22;8601;48.718;8.992;2024-02-26T12:30:22;11.80;77.70
16970;DHT22;8601;48.718;8.992;2024-02-26T12:32:50;11.80;78.10
16970;DHT22;8601;48.718;8.992;2024-02-26T12:35:17;11.80;78.60
16970;DHT22;8601;48.718;8.992;2024-02-26T12:37:46;11.90;81.40
16970;DHT22;8601;48.718;8.992;2024-02-26T12:40:14;11.90;78.80
16970;DHT22;8601;48.718;8.992;2024-02-26T12:42:43;11.80;77.30
16970;DHT22;8601;48.718;8.992;2024-02-26T12:45:11;11.80;78.50
16970;DHT22;8601;48.718;8.992;2024-02-26T12:47:38;11.90;79.00
16970;DHT22;8601;48.718;8.992;2024-02-26T12:50:07;12.00;80.00
16970;DHT22;8601;48.718;8.992;2024-02-26T12:52:37;12.10;81.40
16970;DHT22;8601;48.718;8.992;2024-02-26T12:55:06;12.00;78.30
16970;DHT22;8601;48.718;8.992;2024-02-26T12:57:36;12.20;80.50
16970;DHT22;8601;48.718;8.992;2024-02-26T13:00:05;12.30;79.00
16970;DHT22;8601;48.718;8.992;2024-02-26T13:02:35;12.30;78.00
16970;DHT22;8601;48.718;8.992;2024-02-26T13:05:03;12.30;79.10
16970;DHT22;8601;48.718;8.992;2024-02-26T13:07:30;12.40;81.00
16970;DHT22;8601;48.718;8.992;2024-02-26T13:10:00;12.50;78.50
16970;DHT22;8601;48.718;8.992;2024-02-26T13:12:30;12.50;78.50
16970;DHT22;8601;48.718;8.992;2024-02-26T13:14:59;12.60;78.00
16970;DHT22;8601;48.718;8.992;2024-02-26T13:17:26;12.80;81.30
16970;DHT22;8601;48.718;8.992;2024-02-26T13:19:53;12.90;79.00
16970;DHT22;8601;48.718;8.992;2024-02-26T13:22:21;12.90;77.40
16970;DHT22;8601;48.718;8.992;2024-02-26T13:24:53;12.90;76.90
16970;DHT22;8601;48.718;8.992;2024-02-26T13:27:21;12.90;77.40
16970;DHT22;8601;48.718;8.992;2024-02-26T13:30:02;12.80;77.80
16970;DHT22;8601;48.718;8.992;2024-02-26T13:32:32;12.80;78.30
16970;DHT22;8601;48.718;8.992;2024-02-26T13:35:08;12.90;78.80
16970;DHT22;8601;48.718;8.992;2024-02-26T13:37:36;13.00;79.70
16970;DHT22;8601;48.718;8.992;2024-02-26T13:40:07;13.10;79.50
16970;DHT22;8601;48.718;8.992;2024-02-26T13:42:34;13.20;78.00
16970;DHT22;8601;48.718;8.992;2024-02-26T13:45:03;13.10;78.40
16970;DHT22;8601;48.718;8.992;2024-02-26T13:47:32;12.90;77.70
16970;DHT22;8601;48.718;8.992;2024-02-26T13:49:58;12.90;76.70
16970;DHT22;8601;48.718;8.992;2024-02-26T13:52:26;12.90;78.30
16970;DHT22;8601;48.718;8.992;2024-02-26T13:54:53;12.90;76.50
16970;DHT22;8601;48.718;8.992;2024-02-26T13:57:19;12.80;75.70
16970;DHT22;8601;48.718;8.992;2024-02-26T13:59:46;12.80;78.00
16970;DHT22;8601;48.718;8.992;2024-02-26T14:02:15;12.80;78.80
16970;DHT22;8601;48.718;8.992;2024-02-26T14:04:42;12.80;78.50
16970;DHT22;8601;48.718;8.992;2024-02-26T14:07:11;12.80;76.90
16970;DHT22;8601;48.718;8.992;2024-02-26T14:09:38;12.90;75.50
16970;DHT22;8601;48.718;8.992;2024-02-26T14:12:05;13.00;79.00
16970;DHT22;8601;48.718;8.992;2024-02-26T14:14:33;13.20;76.00
16970;DHT22;8601;48.718;8.992;2024-02-26T14:17:04;13.00;75.80
16970;DHT22;8601;48.718;8.992;2024-02-26T14:19:32;13.20;74.40
16970;DHT22;8601;48.718;8.992;2024-02-26T14:21:59;13.20;74.10
16970;DHT22;8601;48.718;8.992;2024-02-26T14:24:26;13.30;75.70
16970;DHT22;8601;48.718;8.992;2024-02-26T14:26:52;13.40;74.30
16970;DHT22;8601;48.718;8.992;2024-02-26T14:29:21;13.40;76.90
16970;DHT22;8601;48.718;8.992;2024-02-26T14:31:48;13.80;78.70
16970;DHT22;8601;48.718;8.992;2024-02-26T14:34:15;13.70;72.80
16970;DHT22;8601;48.718;8.992;2024-02-26T14:36:45;13.60;75.90
16970;DHT22;8601;48.718;8.992;2024-02-26T14:39:12;13.50;75.10
16970;DHT22;8601;48.718;8.992;2024-02-26T14:41:39;13.30;74.40
16970;DHT22;8601;48.718;8.992;2024-02-26T14:44:06;13.20;75.40
16970;DHT22;8601;48.718;8.992;2024-02-26T14:46:34;13.00;74.70
16970;DHT22;8601;48.718;8.992;2024-02-26T14:49:02;12.90;78.30
16970;DHT22;8601;48.718;8.992;2024-02-26T14:51:29;12.90;75.10
16970;DHT22;8601;48.718;8.992;2024-02-26T14:53:57;12.90;76.80
16970;DHT22;8601;48.718;8.992;2024-02-26T14:56:26;12.90;75.70
16970;DHT22;8601;48.718;8.992;2024-02-26T14:58:53;12.80;78.80
16970;DHT22;8601;48.718;8.992;2024-02-26T15:01:20;12.80;78.50
16970;DHT22;8601;48.718;8.992;2024-02-26T15:03:47;12.70;78.20
16970;DHT22;8601;48.718;8.992;2024-02-26T15:06:14;12.60;78.70
16970;DHT22;8601;48.718;8.992;2024-02-26T15:08:40;12.50;80.30
16970;DHT22;8601;48.718;8.992;2024-02-26T15:11:09;12.50;78.20
16970;DHT22;8601;48.718;8.992;2024-02-26T15:13:36;12.50;79.40
16970;DHT22;8601;48.718;8.992;2024-02-26T15:16:03;12.40;78.80
16970;DHT22;8601;48.718;8.992;2024-02-26T15:18:30;12.50;80.10
16970;DHT22;8601;48.718;8.992;2024-02-26T15:20:57;12.50;80.30
16970;DHT22;8601;48.718;8.992;2024-02-26T15:23:23;12.50;82.20
16970;DHT22;8601;48.718;8.992;2024-02-26T15:25:51;12.50;80.30
16970;DHT22;8601;48.718;8.992;2024-02-26T15:28:21;12.40;80.00
16970;DHT22;8601;48.718;8.992;2024-02-26T15:30:47;12.40;81.40
16970;DHT22;8601;48.718;8.992;2024-02-26T15:33:14;12.30;81.30
16970;DHT22;8601;48.718;8.992;2024-02-26T15:35:41;12.30;79.60
16970;DHT22;8601;48.718;8.992;2024-02-26T15:38:10;12.30;81.00
16970;DHT22;8601;48.718;8.992;2024-02-26T15:40:38;12.20;79.80
16970;DHT22;8601;48.718;8.992;2024-02-26T15:43:05;12.10;81.10
16970;DHT22;8601;48.718;8.992;2024-02-26T15:45:33;12.10;81.20
16970;DHT22;8601;48.718;8.992;2024-02-26T15:48:00;12.10;81.80
16970;DHT22;8601;48.718;8.992;2024-02-26T15:50:28;12.00;82.80
16970;DHT22;8601;48.718;8.992;2024-02-26T15:52:55;12.00;82.00
16970;DHT22;8601;48.718;8.992;2024-02-26T15:55:23;12.00;84.10
16970;DHT22;8601;48.718;8.992;2024-02-26T15:57:50;12.00;83.60